Time;durP1;ratioP1;P1;durP2;ratioP2;P2;SDS_P1;SDS_P2;PMS_P1;PMS_P2;Temp;Humidity;BMP_temperature;BMP_pressure;BME280_temperature;BME280_humidity;BME280_pressure;Samples;Min_cycle;Max_cycle;Signal;HPM_P1;HPM_P2
2022/06/18 00:01:39;;;;;;;1.90;1.50;;;;;;;26.72;43.61;101833.78;5020115;28;20060;-44
2022/06/18 00:04:07;;;;;;;2.28;1.67;;;;;;;26.71;43.92;101832.09;5020424;28;20140;-45
2022/06/18 00:06:44;;;;;;;2.95;1.50;;;;;;;26.70;43.72;101838.56;5022242;28;20049;-44
2022/06/18 00:09:12;;;;;;;2.33;1.55;;;;;;;26.70;43.99;101836.69;5023852;28;20056;-44
2022/06/18 00:14:24;;;;;;;2.83;1.80;;;;;;;26.69;43.76;101839.59;5020449;28;20448;-46
2022/06/18 00:16:50;;;;;;;2.40;1.42;;;;;;;26.68;43.64;101841.47;5026568;28;20053;-45
2022/06/18 00:19:17;;;;;;;1.77;1.48;;;;;;;26.67;43.75;101831.63;5019934;28;20042;-44
2022/06/18 00:21:44;;;;;;;1.98;1.60;;;;;;;26.67;43.82;101836.22;5024091;28;20414;-47
2022/06/18 00:24:17;;;;;;;2.22;1.65;;;;;;;26.65;43.77;101835.56;5022780;28;20049;-44
2022/06/18 00:26:44;;;;;;;3.10;1.60;;;;;;;26.65;43.84;101827.38;5024804;28;20053;-43
2022/06/18 00:29:14;;;;;;;1.98;1.45;;;;;;;26.65;44.01;101833.66;5021754;28;20053;-45
2022/06/18 00:31:40;;;;;;;2.10;1.60;;;;;;;26.64;44.06;101829.28;5022870;28;20072;-44
2022/06/18 00:34:07;;;;;;;2.10;1.73;;;;;;;26.64;43.97;101828.44;5021845;28;20054;-44
2022/06/18 00:36:38;;;;;;;2.83;1.85;;;;;;;26.62;43.84;101820.47;5024275;28;20046;-44
2022/06/18 00:39:09;;;;;;;2.42;1.60;;;;;;;26.63;43.72;101830.31;5021976;28;20071;-47
2022/06/18 00:41:36;;;;;;;3.75;1.80;;;;;;;26.61;43.92;101828.81;5022290;28;20054;-44
2022/06/18 00:44:31;;;;;;;3.58;1.60;;;;;;;26.60;43.83;101827.13;5021426;28;20360;-45
2022/06/18 00:47:11;;;;;;;2.53;1.77;;;;;;;26.60;44.07;101829.84;5017795;28;20057;-44
2022/06/18 00:49:46;;;;;;;3.50;1.80;;;;;;;26.58;43.99;101820.00;5024640;28;20060;-43
2022/06/18 00:52:22;;;;;;;3.00;1.75;;;;;;;26.58;44.01;101825.44;5022977;28;20052;-48
2022/06/18 00:55:10;;;;;;;2.28;1.90;;;;;;;26.57;43.91;101821.03;5022476;28;20037;-45
2022/06/18 00:57:52;;;;;;;2.03;1.50;;;;;;;26.56;44.04;101818.50;5025074;28;20063;-43
2022/06/18 01:00:23;;;;;;;2.25;1.65;;;;;;;26.56;43.96;101813.03;5025279;28;20060;-43
2022/06/18 01:02:52;;;;;;;2.97;1.77;;;;;;;26.55;43.85;101814.09;5026433;28;20409;-44
2022/06/18 01:05:24;;;;;;;3.40;1.75;;;;;;;26.53;44.15;101811.56;5019669;28;20057;-47
2022/06/18 01:08:00;;;;;;;5.18;1.88;;;;;;;26.53;43.94;101808.84;5019926;28;20838;-46
2022/06/18 01:10:32;;;;;;;4.18;2.05;;;;;;;26.50;44.03;101803.78;5022171;28;20321;-47
2022/06/18 01:13:02;;;;;;;3.17;1.90;;;;;;;26.50;44.11;101811.94;5023069;28;20554;-44
2022/06/18 01:15:34;;;;;;;2.67;1.60;;;;;;;26.49;44.17;101807.53;5019942;28;20045;-44
2022/06/18 01:18:02;;;;;;;2.78;2.00;;;;;;;26.50;44.06;101821.97;5024980;28;20057;-46
2022/06/18 01:20:28;;;;;;;2.38;1.70;;;;;;;26.48;44.17;101813.97;5029599;28;20067;-46
2022/06/18 01:23:18;;;;;;;2.67;2.00;;;;;;;26.46;44.43;101821.50;5025458;28;20053;-47
2022/06/18 01:25:47;;;;;;;2.47;1.70;;;;;;;26.46;44.36;101809.78;5024265;28;20341;-46
2022/06/18 01:28:16;;;;;;;2.88;2.17;;;;;;;26.45;44.05;101814.34;5021244;28;20325;-46
2022/06/18 01:30:44;;;;;;;3.42;1.95;;;;;;;26.46;44.29;101816.06;5020576;28;20432;-45
2022/06/18 01:33:11;;;;;;;5.43;2.25;;;;;;;26.45;44.43;101805.34;5022878;28;20055;-45
2022/06/18 01:35:42;;;;;;;2.85;2.10;;;;;;;26.43;44.37;101799.25;5021906;28;20121;-46
2022/06/18 01:38:10;;;;;;;2.63;1.70;;;;;;;26.42;44.33;101798.41;5021284;28;20338;-44
2022/06/18 01:40:49;;;;;;;4.13;1.85;;;;;;;26.41;44.29;101796.69;5024037;28;20066;-46
2022/06/18 01:43:18;;;;;;;3.92;2.00;;;;;;;26.41;44.51;101798.56;5027300;28;20048;-45
2022/06/18 01:45:50;;;;;;;2.70;1.88;;;;;;;26.41;44.57;101795.84;5026093;28;20059;-46
2022/06/18 01:48:22;;;;;;;7.72;2.63;;;;;;;26.39;44.55;101793.31;5016466;28;20414;-45
2022/06/18 01:50:55;;;;;;;2.70;1.87;;;;;;;26.39;44.63;101792.47;5017803;28;20872;-45
2022/06/18 01:53:26;;;;;;;4.47;2.15;;;;;;;26.38;44.70;101797.06;5017264;28;20057;-45
2022/06/18 01:56:09;;;;;;;2.72;1.80;;;;;;;26.37;44.72;101794.53;5018029;28;20042;-45
2022/06/18 01:58:46;;;;;;;4.03;2.40;;;;;;;26.37;44.54;101794.53;5024765;28;20046;-44
2022/06/18 02:01:21;;;;;;;4.25;2.17;;;;;;;26.36;44.71;101795.56;5023226;28;20101;-44
2022/06/18 02:03:47;;;;;;;6.45;2.33;;;;;;;26.35;44.60;101800.16;5021146;28;20378;-44
2022/06/18 02:06:14;;;;;;;4.43;2.22;;;;;;;26.34;44.65;101801.19;5018604;28;20048;-43
2022/06/18 02:08:40;;;;;;;2.65;2.00;;;;;;;26.33;44.74;101796.78;5018755;28;20046;-48
2022/06/18 02:11:11;;;;;;;3.15;2.28;;;;;;;26.32;44.64;101795.94;5019132;28;20041;-48
2022/06/18 02:13:45;;;;;;;5.35;2.13;;;;;;;26.31;44.93;101791.53;5019211;28;20049;-44
2022/06/18 02:16:23;;;;;;;3.90;1.92;;;;;;;26.31;44.98;101796.13;5016114;28;20038;-44
2022/06/18 02:18:50;;;;;;;2.42;2.08;;;;;;;26.30;44.76;101791.72;5021820;28;20096;-45
2022/06/18 02:21:22;;;;;;;3.47;1.80;;;;;;;26.30;45.07;101800.72;5022498;28;20046;-45
2022/06/18 02:23:53;;;;;;;4.73;1.97;;;;;;;26.29;44.83;101795.44;5016985;28;20046;-45
2022/06/18 02:26:21;;;;;;;3.53;2.28;;;;;;;26.29;44.80;101787.31;5020201;28;20045;-46
2022/06/18 02:28:50;;;;;;;4.53;1.92;;;;;;;26.28;45.05;101793.78;5018228;28;21228;-46
2022/06/18 02:31:21;;;;;;;3.00;2.17;;;;;;;26.28;45.05;101804.66;5016421;28;20071;-44
2022/06/18 02:33:52;;;;;;;3.63;2.20;;;;;;;26.27;45.10;101809.25;5019412;28;20112;-45
2022/06/18 02:36:23;;;;;;;2.95;2.10;;;;;;;26.27;45.14;101805.69;5022331;28;20055;-45
2022/06/18 02:38:57;;;;;;;3.83;2.03;;;;;;;26.25;45.24;101803.16;5020928;28;20055;-45
2022/06/18 02:41:25;;;;;;;3.13;2.28;;;;;;;26.26;45.21;101804.00;5017720;28;20128;-44
2022/06/18 02:43:53;;;;;;;3.50;2.13;;;;;;;26.24;45.13;101804.16;5020576;28;20077;-46
2022/06/18 02:46:20;;;;;;;5.75;2.78;;;;;;;26.25;45.28;101800.44;5019394;28;20070;-44
2022/06/18 02:48:47;;;;;;;4.05;2.17;;;;;;;26.23;45.03;101805.22;5021647;28;20145;-44
2022/06/18 02:51:13;;;;;;;3.08;2.33;;;;;;;26.22;45.21;101808.97;5015173;28;20156;-43
2022/06/18 02:53:40;;;;;;;2.15;1.85;;;;;;;26.23;45.38;101804.38;5024478;28;20140;-44
2022/06/18 02:56:09;;;;;;;4.10;2.17;;;;;;;26.23;45.43;101804.38;5022679;28;20042;-43
2022/06/18 02:58:39;;;;;;;4.38;2.28;;;;;;;26.23;45.24;101809.81;5026341;28;20049;-43
2022/06/18 03:01:10;;;;;;;3.88;2.20;;;;;;;26.21;45.45;101806.41;5016580;28;20054;-44
2022/06/18 03:03:40;;;;;;;3.15;2.15;;;;;;;26.21;45.30;101815.44;5027770;28;20050;-44
2022/06/18 03:06:09;;;;;;;4.20;2.20;;;;;;;26.20;45.40;101821.03;5025066;28;20052;-45
2022/06/18 03:08:37;;;;;;;2.95;2.03;;;;;;;26.19;45.49;101814.75;5021990;28;20052;-46
2022/06/18 03:13:54;;;;;;;4.10;2.50;;;;;;;26.19;45.61;101819.34;5026703;28;20132;-47
2022/06/18 03:16:22;;;;;;;3.85;2.15;;;;;;;26.18;45.57;101814.97;5022399;28;20038;-43
2022/06/18 03:18:51;;;;;;;3.35;2.45;;;;;;;26.16;45.36;101815.13;5025622;28;20064;-45
2022/06/18 03:21:38;;;;;;;3.00;2.13;;;;;;;26.15;45.72;101820.75;5026017;28;20049;-43
2022/06/18 03:24:05;;;;;;;3.05;2.53;;;;;;;26.16;45.67;101819.72;5025348;28;20038;-46
2022/06/18 03:26:35;;;;;;;4.00;2.67;;;;;;;26.14;45.66;101819.91;5025294;28;20049;-46
2022/06/18 03:29:03;;;;;;;4.30;2.33;;;;;;;26.13;45.81;101815.50;5024878;28;20053;-47
2022/06/18 03:31:30;;;;;;;2.95;2.20;;;;;;;26.13;45.85;101825.50;5023269;28;20077;-43
2022/06/18 03:33:57;;;;;;;4.95;2.53;;;;;;;26.11;45.78;101822.97;5022659;28;20087;-43
2022/06/18 03:36:24;;;;;;;2.90;2.00;;;;;;;26.12;45.67;101823.81;5023092;28;20041;-46
2022/06/18 03:38:50;;;;;;;4.75;2.55;;;;;;;26.11;45.76;101827.59;5024154;28;20045;-44
2022/06/18 03:41:19;;;;;;;5.13;2.65;;;;;;;26.10;45.90;101818.59;5025740;28;20049;-45
2022/06/18 03:43:46;;;;;;;8.75;2.58;;;;;;;26.09;45.74;101817.75;5024000;28;20041;-43
2022/06/18 03:46:16;;;;;;;3.53;2.42;;;;;;;26.09;45.78;101822.31;5022111;28;20048;-45
2022/06/18 03:48:52;;;;;;;4.40;2.67;;;;;;;26.08;45.80;101824.19;5023233;28;20459;-48
2022/06/18 03:51:20;;;;;;;3.92;2.20;;;;;;;26.08;45.87;101817.91;5025821;28;20326;-48
2022/06/18 03:53:46;;;;;;;5.22;2.72;;;;;;;26.07;45.77;101822.50;5018225;28;20052;-47
2022/06/18 03:56:15;;;;;;;4.10;2.30;;;;;;;26.07;45.97;101824.38;5022272;28;20042;-47
2022/06/18 03:58:42;;;;;;;3.22;2.38;;;;;;;26.06;46.04;101825.41;5024607;28;20050;-47
2022/06/18 04:01:12;;;;;;;3.85;2.63;;;;;;;26.06;46.03;101822.69;5024196;28;20073;-44
2022/06/18 04:03:39;;;;;;;4.10;2.38;;;;;;;26.05;45.99;101819.16;5024836;28;20046;-45
2022/06/18 04:06:07;;;;;;;4.00;2.30;;;;;;;26.06;46.00;101836.28;5026111;28;20124;-48
2022/06/18 04:08:33;;;;;;;2.92;2.15;;;;;;;26.05;46.11;101831.84;5019591;28;20048;-46
2022/06/18 04:11:00;;;;;;;3.60;2.33;;;;;;;26.05;45.83;101834.56;5020376;28;20056;-43
2022/06/18 04:13:30;;;;;;;3.08;2.25;;;;;;;26.04;45.91;101830.19;5021778;28;20129;-43
2022/06/18 04:15:56;;;;;;;3.42;2.03;;;;;;;26.04;46.08;101827.47;5021392;28;20048;-44
2022/06/18 04:18:23;;;;;;;3.17;2.28;;;;;;;26.03;45.95;101832.06;5022300;28;20046;-44
2022/06/18 04:20:50;;;;;;;2.72;2.38;;;;;;;26.04;46.07;101833.72;5024971;28;20050;-46
2022/06/18 04:23:16;;;;;;;3.30;2.20;;;;;;;26.02;46.05;101834.97;5022948;28;20056;-44
2022/06/18 04:25:43;;;;;;;3.80;2.67;;;;;;;26.03;46.26;101836.66;5023221;28;20045;-43
2022/06/18 04:28:11;;;;;;;4.45;2.47;;;;;;;26.02;46.31;101824.94;5022020;28;20049;-45
2022/06/18 04:30:38;;;;;;;3.83;2.47;;;;;;;26.02;46.57;101824.09;5025062;28;20128;-45
2022/06/18 04:33:05;;;;;;;4.47;2.30;;;;;;;26.01;46.12;101825.97;5023361;28;20053;-44
2022/06/18 04:35:32;;;;;;;4.63;2.78;;;;;;;26.01;46.43;101823.25;5022828;28;20449;-45
2022/06/18 04:38:00;;;;;;;5.70;2.97;;;;;;;26.01;46.20;101827.81;5028478;28;20059;-43
2022/06/18 04:40:33;;;;;;;4.45;2.40;;;;;;;26.01;46.43;101823.25;5025650;28;20071;-45
2022/06/18 04:43:19;;;;;;;5.93;3.25;;;;;;;26.01;46.34;101823.25;5024201;28;20045;-47
2022/06/18 04:45:46;;;;;;;4.97;2.40;;;;;;;26.01;46.42;101819.66;5025483;28;20042;-43
2022/06/18 04:48:13;;;;;;;4.90;2.45;;;;;;;26.00;46.34;101818.81;5023694;28;20356;-42
2022/06/18 04:50:41;;;;;;;5.63;2.70;;;;;;;26.01;46.47;101823.25;5021032;28;20120;-45
2022/06/18 04:53:09;;;;;;;5.97;2.95;;;;;;;26.01;46.41;101823.25;5021512;28;20054;-42
2022/06/18 04:55:36;;;;;;;4.90;2.53;;;;;;;26.02;46.18;101826.81;5021732;28;20037;-45
2022/06/18 04:58:03;;;;;;;6.75;2.78;;;;;;;26.01;46.51;101815.09;5026605;28;20046;-44
2022/06/18 05:00:29;;;;;;;3.53;2.17;;;;;;;26.00;46.36;101824.25;5024519;28;20433;-43
2022/06/18 05:02:56;;;;;;;3.83;2.38;;;;;;;26.01;46.57;101817.81;5027097;28;20041;-44
2022/06/18 05:05:26;;;;;;;5.47;2.35;;;;;;;26.02;46.44;101822.22;5021772;28;20049;-46
2022/06/18 05:07:53;;;;;;;5.40;2.53;;;;;;;26.03;46.52;101820.34;5022924;28;20073;-46
2022/06/18 05:10:20;;;;;;;4.15;2.35;;;;;;;26.03;46.39;101823.06;5021816;28;20042;-43
2022/06/18 05:12:47;;;;;;;5.30;2.20;;;;;;;26.03;46.58;101826.63;5023950;28;20049;-48
2022/06/18 05:15:14;;;;;;;4.47;2.35;;;;;;;26.04;46.61;101820.16;5022802;28;20052;-45
2022/06/18 05:17:46;;;;;;;3.83;2.33;;;;;;;26.03;46.53;101817.63;5025538;28;20037;-44
2022/06/18 05:20:22;;;;;;;5.47;2.85;;;;;;;26.04;46.66;101820.16;5021640;28;20061;-45
2022/06/18 05:22:49;;;;;;;5.43;2.42;;;;;;;26.05;46.34;101824.56;5021202;28;20137;-45
2022/06/18 05:25:17;;;;;;;4.68;2.45;;;;;;;26.06;46.39;101830.84;5020027;28;20679;-43
2022/06/18 05:27:45;;;;;;;3.70;2.40;;;;;;;26.05;46.64;101829.13;5023811;28;20049;-43
2022/06/18 05:30:15;;;;;;;6.00;2.58;;;;;;;26.05;46.72;101830.00;5024296;28;20128;-43
2022/06/18 05:32:42;;;;;;;3.30;2.35;;;;;;;26.06;46.69;101825.41;5020788;28;20064;-45
2022/06/18 05:35:10;;;;;;;4.53;2.78;;;;;;;26.05;46.50;101821.84;5020345;28;20045;-44
2022/06/18 05:37:38;;;;;;;5.13;2.25;;;;;;;26.05;46.58;101824.56;5020443;28;20050;-44
2022/06/18 05:40:05;;;;;;;4.95;2.50;;;;;;;26.05;46.65;101824.56;5021825;28;20085;-44
2022/06/18 05:42:32;;;;;;;3.78;2.67;;;;;;;26.06;46.46;101826.25;5017100;28;20306;-46
2022/06/18 05:44:58;;;;;;;4.10;2.35;;;;;;;26.05;46.57;101832.72;5023009;28;20425;-45
2022/06/18 05:47:27;;;;;;;4.50;2.38;;;;;;;26.05;46.75;101831.84;5022689;28;20037;-45
2022/06/18 05:49:57;;;;;;;4.90;3.28;;;;;;;26.06;46.51;101825.41;5024551;28;20421;-43
2022/06/18 05:52:25;;;;;;;4.60;2.53;;;;;;;26.06;46.68;101822.69;5021846;28;20041;-44
2022/06/18 05:54:52;;;;;;;3.10;2.45;;;;;;;26.05;46.66;101832.72;5021661;28;20053;-44
2022/06/18 05:57:19;;;;;;;3.45;2.35;;;;;;;26.05;46.77;101827.28;5021227;28;20033;-45
2022/06/18 05:59:47;;;;;;;5.30;2.60;;;;;;;26.05;46.68;101827.28;5023505;28;20099;-43
2022/06/18 06:02:17;;;;;;;3.25;2.40;;;;;;;26.05;46.92;101827.28;5023435;28;20124;-44
2022/06/18 06:04:44;;;;;;;3.63;2.50;;;;;;;26.06;46.63;101825.41;5021126;28;20053;-46
2022/06/18 06:07:22;;;;;;;5.45;3.03;;;;;;;26.06;46.61;101830.84;5019121;28;20040;-43
2022/06/18 06:12:35;;;;;;;4.28;2.28;;;;;;;26.07;46.50;101829.81;5021316;28;20045;-47
2022/06/18 06:15:03;;;;;;;3.33;1.98;;;;;;;26.07;46.48;101818.94;5025049;28;20049;-45
2022/06/18 06:17:29;;;;;;;5.10;2.42;;;;;;;26.07;46.73;101832.53;5024228;28;20072;-45
2022/06/18 06:20:02;;;;;;;4.63;2.60;;;;;;;26.06;46.74;101826.25;5025717;28;20049;-44
2022/06/18 06:22:29;;;;;;;5.38;2.38;;;;;;;26.09;46.71;101836.78;5021540;28;20573;-43
2022/06/18 06:24:55;;;;;;;4.60;2.42;;;;;;;26.08;46.92;101836.94;5018540;28;20061;-44
2022/06/18 06:27:22;;;;;;;5.03;3.22;;;;;;;26.09;46.63;101846.75;5018799;28;20049;-45
2022/06/18 06:29:49;;;;;;;4.47;2.38;;;;;;;26.08;46.67;101845.09;5020796;28;20050;-48
2022/06/18 06:32:15;;;;;;;3.60;2.40;;;;;;;26.09;46.33;101844.03;5022833;28;20048;-43
2022/06/18 06:34:42;;;;;;;5.70;2.50;;;;;;;26.08;46.51;101853.22;5019959;28;20060;-44
2022/06/18 06:37:10;;;;;;;3.33;2.17;;;;;;;26.09;46.48;101855.78;5022487;28;20053;-42
2022/06/18 06:39:37;;;;;;;4.38;2.67;;;;;;;26.09;46.54;101858.50;5025986;28;20429;-43
2022/06/18 06:42:04;;;;;;;3.80;2.25;;;;;;;26.09;46.70;101866.66;5026737;28;20112;-44
2022/06/18 06:44:31;;;;;;;3.72;2.50;;;;;;;26.09;46.55;101860.34;5025778;28;20041;-44
2022/06/18 06:46:59;;;;;;;5.78;2.22;;;;;;;26.11;46.60;101871.91;5024127;28;20421;-45
2022/06/18 06:49:26;;;;;;;3.42;2.38;;;;;;;26.11;46.57;101865.63;5024817;28;20057;-45
2022/06/18 06:51:54;;;;;;;4.22;2.25;;;;;;;26.12;46.45;101868.16;5023326;28;20046;-42
2022/06/18 06:54:20;;;;;;;5.57;2.35;;;;;;;26.11;46.53;101871.06;5021902;28;20153;-44
2022/06/18 06:59:32;;;;;;;3.47;2.45;;;;;;;26.12;46.44;101870.03;5024795;28;20060;-43
2022/06/18 07:02:02;;;;;;;4.35;2.65;;;;;;;26.13;46.56;101879.84;5025427;28;20135;-43
2022/06/18 07:04:29;;;;;;;3.42;2.20;;;;;;;26.14;46.78;101881.56;5025183;28;20785;-43
2022/06/18 07:06:57;;;;;;;3.17;2.45;;;;;;;26.14;46.63;101876.13;5025276;28;20052;-44
2022/06/18 07:09:24;;;;;;;3.38;2.00;;;;;;;26.15;46.57;101875.09;5021441;28;20433;-44
2022/06/18 07:11:51;;;;;;;4.90;2.40;;;;;;;26.16;46.60;101879.50;5023340;28;20132;-46
2022/06/18 07:14:17;;;;;;;4.20;2.13;;;;;;;26.16;46.58;101887.66;5027318;28;20057;-43
2022/06/18 07:16:51;;;;;;;4.75;2.75;;;;;;;26.16;46.49;101880.34;5025702;28;20512;-47
2022/06/18 07:19:18;;;;;;;4.20;2.30;;;;;;;26.18;46.46;101874.75;5025080;28;20443;-43
2022/06/18 07:21:48;;;;;;;6.18;3.17;;;;;;;26.19;46.56;101884.56;5025849;28;20041;-43
2022/06/18 07:24:15;;;;;;;4.25;2.60;;;;;;;26.18;46.47;101891.03;5023824;28;20042;-43
2022/06/18 07:26:41;;;;;;;7.85;3.13;;;;;;;26.18;46.39;101888.31;5022645;28;20046;-46
2022/06/18 07:29:09;;;;;;;2.75;2.28;;;;;;;26.19;46.34;101893.56;5023066;28;20045;-44
2022/06/18 07:31:35;;;;;;;2.90;1.98;;;;;;;26.19;46.20;101890.00;5021485;28;20064;-46
2022/06/18 07:34:04;;;;;;;3.47;2.60;;;;;;;26.20;46.43;101894.41;5019674;28;20312;-43
2022/06/18 07:36:32;;;;;;;4.32;2.85;;;;;;;26.19;46.42;101885.41;5021813;28;20432;-44
2022/06/18 07:39:04;;;;;;;6.03;2.83;;;;;;;26.20;46.34;101886.25;5024619;28;20455;-43
2022/06/18 07:41:35;;;;;;;3.97;2.25;;;;;;;26.21;46.30;101877.94;5023845;28;20234;-45
2022/06/18 07:44:02;;;;;;;6.45;2.97;;;;;;;26.22;46.29;101884.22;5025267;28;20050;-46
2022/06/18 07:46:30;;;;;;;3.50;2.05;;;;;;;26.22;46.37;101881.50;5020174;28;20147;-45
2022/06/18 07:48:56;;;;;;;3.10;2.30;;;;;;;26.22;46.43;101879.63;5020825;28;20050;-48
2022/06/18 07:51:26;;;;;;;3.30;1.90;;;;;;;26.23;46.42;101877.75;5024738;28;20127;-44
2022/06/18 07:53:54;;;;;;;5.10;2.58;;;;;;;26.23;46.07;101875.88;5023578;28;20050;-46
2022/06/18 07:56:20;;;;;;;3.65;2.38;;;;;;;26.23;46.00;101875.88;5022260;28;20045;-44
2022/06/18 07:58:47;;;;;;;4.57;2.28;;;;;;;26.23;46.25;101875.88;5024495;28;20099;-46
2022/06/18 08:01:13;;;;;;;7.25;2.47;;;;;;;26.25;46.53;101879.25;5019624;28;20104;-46
2022/06/18 08:03:40;;;;;;;6.05;2.25;;;;;;;26.26;46.37;101874.66;5022148;28;20055;-44
2022/06/18 08:06:08;;;;;;;5.75;2.60;;;;;;;26.26;46.66;101875.50;5023834;28;20045;-47
2022/06/18 08:08:34;;;;;;;5.47;2.85;;;;;;;26.27;47.02;101877.19;5023659;28;20313;-45
2022/06/18 08:11:05;;;;;;;5.53;2.25;;;;;;;26.29;47.03;101879.72;5019379;28;20045;-45
2022/06/18 08:13:32;;;;;;;7.20;2.40;;;;;;;26.29;47.22;101874.28;5023784;28;20045;-43
2022/06/18 08:15:59;;;;;;;6.15;2.85;;;;;;;26.30;47.37;101871.41;5021733;28;20068;-47
2022/06/18 08:18:26;;;;;;;4.82;2.83;;;;;;;26.31;47.59;101864.09;5024105;28;20041;-45
2022/06/18 08:21:05;;;;;;;6.95;2.78;;;;;;;26.32;47.49;101874.75;5024617;28;20046;-46
2022/06/18 08:23:33;;;;;;;4.97;3.00;;;;;;;26.33;47.80;101873.75;5021256;28;20097;-44
2022/06/18 08:26:00;;;;;;;7.00;2.70;;;;;;;26.34;47.81;101872.72;5022483;28;20082;-43
2022/06/18 08:28:27;;;;;;;5.07;2.63;;;;;;;26.34;47.98;101863.72;5026667;28;20144;-45
2022/06/18 08:30:54;;;;;;;6.60;2.65;;;;;;;26.36;47.78;101871.69;5023562;28;20057;-45
2022/06/18 08:33:20;;;;;;;5.70;3.10;;;;;;;26.36;47.79;101880.69;5021894;28;20045;-44
2022/06/18 08:35:47;;;;;;;6.32;3.10;;;;;;;26.37;47.89;101874.19;5024103;28;20050;-48
2022/06/18 08:38:14;;;;;;;7.95;3.58;;;;;;;26.37;47.86;101874.19;5023962;28;20425;-44
2022/06/18 08:41:04;;;;;;;6.78;2.92;;;;;;;26.38;47.77;101870.47;5020347;28;20061;-45
2022/06/18 08:44:12;;;;;;;7.72;3.22;;;;;;;26.39;47.95;101874.03;5025308;28;20132;-43
2022/06/18 08:46:56;;;;;;;5.72;3.45;;;;;;;26.41;47.97;101863.81;5020838;28;20050;-45
2022/06/18 08:49:47;;;;;;;8.13;3.08;;;;;;;26.40;47.82;101859.41;5013364;28;20049;-44
2022/06/18 08:52:32;;;;;;;7.72;3.08;;;;;;;26.40;47.81;101852.09;5013603;28;20340;-45
2022/06/18 08:55:17;;;;;;;9.35;4.15;;;;;;;26.41;47.82;101861.94;5016068;28;20060;-46
2022/06/18 08:58:21;;;;;;;8.40;3.42;;;;;;;26.42;48.10;101860.91;5019349;28;20049;-47
2022/06/18 09:01:06;;;;;;;;;;;;;;;26.44;47.87;101858.00;5016966;28;20049;-48
2022/06/18 09:04:03;;;;;;;6.45;3.15;;;;;;;26.45;47.87;101852.41;5016232;28;19929;-44
2022/06/18 09:06:30;;;;;;;7.95;3.75;;;;;;;26.47;48.24;101852.25;5018506;28;20208;-46
2022/06/18 09:09:27;;;;;;;10.82;4.07;;;;;;;26.45;48.20;101854.28;5015877;28;20136;-45
2022/06/18 09:12:01;;;;;;;9.63;4.07;;;;;;;26.47;48.07;101855.78;5015862;28;20049;-44
2022/06/18 09:14:38;;;;;;;5.55;3.33;;;;;;;26.47;48.16;101858.53;5016195;28;20055;-44
2022/06/18 09:17:20;;;;;;;6.80;3.90;;;;;;;26.48;48.26;101862.91;5014200;28;20618;-45
2022/06/18 09:19:59;;;;;;;8.43;3.70;;;;;;;26.51;48.45;101856.28;5017879;28;20045;-45
2022/06/18 09:22:26;;;;;;;5.90;3.50;;;;;;;26.53;48.20;101851.47;5013457;28;20045;-49
2022/06/18 09:25:00;;;;;;;7.32;3.92;;;;;;;26.54;48.53;101853.19;5015008;28;20116;-46
2022/06/18 09:27:55;;;;;;;6.82;3.60;;;;;;;26.55;48.73;101855.72;5016596;28;20138;-46
2022/06/18 09:30:33;;;;;;;5.95;3.22;;;;;;;26.59;48.92;101856.19;5016986;28;20056;-44
2022/06/18 09:33:07;;;;;;;9.98;4.65;;;;;;;26.63;48.84;101859.38;5017872;28;20116;-47
2022/06/18 09:35:45;;;;;;;10.27;4.72;;;;;;;26.65;48.95;101852.72;5017836;28;20052;-46
2022/06/18 09:38:26;;;;;;;13.18;6.68;;;;;;;26.68;48.82;101857.78;5022213;28;20488;-45
2022/06/18 09:40:58;;;;;;;13.98;5.28;;;;;;;26.72;48.97;101847.38;5017091;28;20048;-46
2022/06/18 09:44:00;;;;;;;11.00;5.50;;;;;;;26.75;49.01;101849.72;5017694;28;20046;-46
2022/06/18 09:46:44;;;;;;;13.48;5.63;;;;;;;26.80;48.94;101856.28;5015940;28;20045;-47
2022/06/18 09:49:11;;;;;;;11.27;4.68;;;;;;;26.84;49.12;101854.03;5016328;28;20055;-45
2022/06/18 09:51:46;;;;;;;10.93;5.07;;;;;;;26.89;49.12;101864.34;5014346;28;20060;-45
2022/06/18 09:54:17;;;;;;;9.30;5.22;;;;;;;26.91;49.06;101854.13;5016431;28;20060;-49
2022/06/18 09:56:47;;;;;;;11.77;4.40;;;;;;;26.94;48.98;101860.06;5017028;28;20451;-45
2022/06/18 09:59:46;;;;;;;8.45;4.22;;;;;;;26.98;48.89;101855.09;5016279;28;20191;-45
2022/06/18 10:02:21;;;;;;;6.63;3.95;;;;;;;27.03;49.13;101867.06;5019086;28;20067;-48
2022/06/18 10:07:39;;;;;;;9.38;4.85;;;;;;;27.07;48.72;101856.66;5018782;28;20137;-45
2022/06/18 10:10:14;;;;;;;12.18;4.60;;;;;;;27.08;48.66;101850.19;5018616;28;20440;-46
2022/06/18 10:12:44;;;;;;;8.95;4.43;;;;;;;27.12;48.51;101847.94;5014857;28;20061;-46
2022/06/18 10:15:13;;;;;;;10.10;3.95;;;;;;;27.13;48.24;101846.91;5016607;28;20355;-46
2022/06/18 10:17:45;;;;;;;8.75;3.75;;;;;;;27.14;48.69;101840.47;5019921;28;20049;-45
2022/06/18 10:20:27;;;;;;;8.98;4.05;;;;;;;27.15;48.23;101842.13;5021675;28;20046;-44
2022/06/18 10:23:03;;;;;;;7.88;4.10;;;;;;;27.17;48.86;101837.34;5014770;28;20052;-45
2022/06/18 10:25:42;;;;;;;13.38;6.20;;;;;;;27.19;48.68;101843.44;5016810;28;20131;-45
2022/06/18 10:28:17;;;;;;;17.45;7.10;;;;;;;27.20;49.09;101828.78;5019372;28;20038;-48
2022/06/18 10:30:52;;;;;;;17.35;8.55;;;;;;;27.21;49.15;101830.47;5012893;28;20436;-49
2022/06/18 10:33:44;;;;;;;17.75;9.32;;;;;;;27.22;48.90;101824.00;5023992;28;20052;-47
2022/06/18 10:36:24;;;;;;;14.60;9.43;;;;;;;27.24;49.01;101824.66;5024792;28;20045;-45
2022/06/18 10:39:23;;;;;;;17.80;9.30;;;;;;;27.25;48.85;101823.59;5018975;28;20048;-49
2022/06/18 10:42:24;;;;;;;13.43;8.02;;;;;;;27.26;48.83;101814.44;5020766;28;20052;-45
2022/06/18 10:45:18;;;;;;;13.90;7.65;;;;;;;27.28;48.65;101817.78;5015329;28;20523;-46
2022/06/18 10:47:48;;;;;;;13.80;7.25;;;;;;;27.30;48.51;101818.47;5021737;28;20059;-46
2022/06/18 10:50:18;;;;;;;12.55;6.32;;;;;;;27.30;48.71;101808.41;5028077;28;20037;-47
2022/06/18 10:53:00;;;;;;;8.90;6.22;;;;;;;27.30;48.75;101807.56;5020554;28;20053;-45
2022/06/18 10:55:27;;;;;;;11.90;5.38;;;;;;;27.34;48.89;101813.44;5020308;28;20128;-47
2022/06/18 10:57:54;;;;;;;8.02;4.60;;;;;;;27.34;48.74;101805.28;5019301;28;20673;-45
2022/06/18 11:00:26;;;;;;;10.27;4.40;;;;;;;27.35;48.52;101796.94;5020872;28;20056;-45
2022/06/18 11:02:57;;;;;;;12.73;5.43;;;;;;;27.37;49.25;101805.75;5023026;28;20137;-48
2022/06/18 11:05:36;;;;;;;8.20;5.05;;;;;;;27.38;48.93;101803.84;5018408;28;20641;-46
2022/06/18 11:08:17;;;;;;;10.30;4.97;;;;;;;27.38;49.04;101802.00;5016044;28;20402;-48
2022/06/18 11:11:03;;;;;;;11.50;6.00;;;;;;;27.40;48.99;101797.19;5021165;28;20352;-47
2022/06/18 11:13:39;;;;;;;17.30;10.90;;;;;;;27.41;49.60;101800.75;5017317;28;20067;-45
2022/06/18 11:16:24;;;;;;;20.10;13.05;;;;;;;27.42;49.49;101794.25;5019059;28;20049;-46
2022/06/18 11:18:54;;;;;;;20.55;11.70;;;;;;;27.44;48.86;101797.66;5014078;28;20151;-46
2022/06/18 11:21:29;;;;;;;16.27;9.65;;;;;;;27.45;49.65;101791.16;5015399;28;20139;-46
2022/06/18 11:24:23;;;;;;;15.02;8.60;;;;;;;27.45;49.49;101789.28;5019662;28;20049;-48
2022/06/18 11:26:49;;;;;;;18.50;7.82;;;;;;;27.48;49.75;101790.78;5021621;28;20056;-48
2022/06/18 11:29:33;;;;;;;13.10;7.78;;;;;;;27.47;49.80;101789.94;5023163;28;20049;-46
2022/06/18 11:32:11;;;;;;;12.60;7.70;;;;;;;27.48;49.71;101782.59;5021307;28;20067;-46
2022/06/18 11:34:46;;;;;;;15.80;7.85;;;;;;;27.50;49.70;101775.94;5025216;28;20178;-50
2022/06/18 11:37:28;;;;;;;12.43;7.45;;;;;;;27.50;49.47;101783.28;5020813;28;20063;-48
2022/06/18 11:40:17;;;;;;;15.43;8.32;;;;;;;27.49;50.09;101771.50;5022037;28;20061;-45
2022/06/18 11:42:49;;;;;;;15.35;7.95;;;;;;;27.50;49.66;101773.22;5017623;28;20786;-45
2022/06/18 11:45:35;;;;;;;15.40;8.32;;;;;;;27.51;49.77;101774.06;5027161;28;20046;-45
2022/06/18 11:48:15;;;;;;;14.50;7.80;;;;;;;27.53;49.83;101788.31;5024231;28;20136;-46
2022/06/18 11:50:48;;;;;;;11.30;6.65;;;;;;;27.52;48.98;101778.47;5026184;28;20072;-47
2022/06/18 11:53:31;;;;;;;12.43;6.38;;;;;;;27.52;49.29;101779.31;5028122;28;20140;-47
2022/06/18 11:56:05;;;;;;;13.32;6.68;;;;;;;27.54;49.48;101782.69;5027461;28;20175;-46
2022/06/18 11:58:44;;;;;;;12.50;5.32;;;;;;;27.54;49.64;101779.97;5026275;28;20356;-47
2022/06/18 12:01:17;;;;;;;19.45;7.00;;;;;;;27.54;49.44;101779.97;5022985;28;20049;-46